createdAt,value
2022-08-17T00:02:26.547Z,18.75
2022-08-17T00:04:54.942Z,18.70
2022-08-17T00:07:22.396Z,18.69
2022-08-17T00:09:49.586Z,18.66
2022-08-17T00:12:43.534Z,18.60
2022-08-17T00:15:05.512Z,18.54
2022-08-17T00:17:32.580Z,18.55
2022-08-17T00:20:00.009Z,18.56
2022-08-17T00:22:34.758Z,18.53
2022-08-17T00:25:07.610Z,18.46
2022-08-17T00:27:35.017Z,18.46
2022-08-17T00:30:02.153Z,18.38
2022-08-17T00:33:11.614Z,18.33
2022-08-17T00:35:19.267Z,18.19
2022-08-17T00:37:46.333Z,18.13
2022-08-17T00:40:14.608Z,18.26
2022-08-17T00:42:42.642Z,18.32
2022-08-17T00:45:11.558Z,18.48
2022-08-17T00:47:38.784Z,18.46
2022-08-17T00:50:09.052Z,18.52
2022-08-17T00:52:39.923Z,18.47
2022-08-17T00:55:07.736Z,18.29
2022-08-17T00:57:41.104Z,18.25
2022-08-17T01:00:21.342Z,18.30
2022-08-17T01:02:48.848Z,18.23
2022-08-17T01:05:21.024Z,18.19
2022-08-17T01:07:49.333Z,18.22
2022-08-17T01:10:59.823Z,18.26
2022-08-17T01:13:07.000Z,18.21
2022-08-17T01:15:39.361Z,17.92
2022-08-17T01:18:07.794Z,17.97
2022-08-17T01:20:46.664Z,18.08
2022-08-17T01:23:20.813Z,18.06
2022-08-17T01:25:52.535Z,18.08
2022-08-17T01:28:33.447Z,17.99
2022-08-17T01:31:07.932Z,18.06
2022-08-17T01:33:35.375Z,18.12
2022-08-17T01:36:04.025Z,18.05
2022-08-17T01:38:31.955Z,18.01
2022-08-17T01:41:05.844Z,17.94
2022-08-17T01:43:39.012Z,17.95
2022-08-17T01:46:06.265Z,17.96
2022-08-17T01:48:34.644Z,17.89
2022-08-17T01:51:01.885Z,17.79
2022-08-17T01:53:32.900Z,17.80
2022-08-17T01:56:02.793Z,17.74
2022-08-17T01:58:29.911Z,17.74
2022-08-17T02:01:01.246Z,17.71
2022-08-17T02:03:29.496Z,17.52
2022-08-17T02:05:56.921Z,17.46
2022-08-17T02:08:37.027Z,17.53
2022-08-17T02:11:14.688Z,17.59
2022-08-17T02:13:42.984Z,17.60
2022-08-17T02:16:10.137Z,17.51
2022-08-17T02:18:37.473Z,17.50
2022-08-17T02:21:04.943Z,17.52
2022-08-17T02:23:33.090Z,17.53
2022-08-17T02:26:00.550Z,17.57
2022-08-17T02:28:28.574Z,17.51
2022-08-17T02:31:01.128Z,17.46
2022-08-17T02:33:41.840Z,17.38
2022-08-17T02:36:11.877Z,17.46
2022-08-17T02:38:39.778Z,17.43
2022-08-17T02:41:07.424Z,17.39
2022-08-17T02:43:34.936Z,17.42
2022-08-17T02:46:02.042Z,17.42
2022-08-17T02:48:31.571Z,17.33
2022-08-17T02:51:01.982Z,17.07
2022-08-17T02:53:35.799Z,16.90
2022-08-17T02:56:03.876Z,16.97
2022-08-17T02:58:35.022Z,17.13
2022-08-17T03:01:07.479Z,17.42
2022-08-17T03:03:35.751Z,17.56
2022-08-17T03:06:03.426Z,17.58
2022-08-17T03:08:30.639Z,17.63
2022-08-17T03:10:57.789Z,17.56
2022-08-17T03:13:24.867Z,17.56
2022-08-17T03:15:51.980Z,17.52
2022-08-17T03:18:25.444Z,17.47
2022-08-17T03:20:57.841Z,17.41
2022-08-17T03:23:25.731Z,17.37
2022-08-17T03:25:53.806Z,17.27
2022-08-17T03:28:21.281Z,17.27
2022-08-17T03:30:48.633Z,17.39
2022-08-17T03:33:16.961Z,17.20
2022-08-17T03:35:44.729Z,17.00
2022-08-17T03:38:12.379Z,16.97
2022-08-17T03:40:56.907Z,17.01
2022-08-17T03:43:27.923Z,17.06
2022-08-17T03:46:27.964Z,17.15
2022-08-17T03:49:18.319Z,17.37
2022-08-17T03:52:04.353Z,17.32
2022-08-17T03:54:50.131Z,17.13
2022-08-17T03:57:17.423Z,17.13
2022-08-17T03:59:45.042Z,17.02
2022-08-17T04:02:20.060Z,16.97
2022-08-17T04:04:50.661Z,17.10
2022-08-17T04:07:19.393Z,17.11
2022-08-17T04:09:46.578Z,17.24
2022-08-17T04:12:15.251Z,17.37
2022-08-17T04:14:53.656Z,17.38
2022-08-17T04:17:26.079Z,17.41
2022-08-17T04:19:53.716Z,17.32
2022-08-17T04:22:32.573Z,17.32
2022-08-17T04:25:03.693Z,17.34
2022-08-17T04:27:30.838Z,17.30
2022-08-17T04:29:58.707Z,17.32
2022-08-17T04:33:04.668Z,17.36
2022-08-17T04:35:17.413Z,17.37
2022-08-17T04:37:45.104Z,17.35
2022-08-17T04:40:31.141Z,17.35
2022-08-17T04:43:02.158Z,17.34
2022-08-17T04:45:32.115Z,17.31
2022-08-17T04:48:00.289Z,17.37
2022-08-17T04:50:27.605Z,17.31
2022-08-17T04:52:56.945Z,17.35
2022-08-17T04:55:24.341Z,17.34
2022-08-17T04:57:51.502Z,17.40
2022-08-17T05:00:18.801Z,17.46
2022-08-17T05:02:50.607Z,17.51
2022-08-17T05:05:22.824Z,17.67
2022-08-17T05:07:57.445Z,17.80
2022-08-17T05:10:26.086Z,17.86
2022-08-17T05:12:59.672Z,18.09
2022-08-17T05:15:27.789Z,18.22
2022-08-17T05:17:55.208Z,18.31
2022-08-17T05:20:22.848Z,18.54
2022-08-17T05:22:54.287Z,18.83
2022-08-17T05:25:25.596Z,18.90
2022-08-17T05:27:53.322Z,19.35
2022-08-17T05:30:20.966Z,19.45
2022-08-17T05:32:59.005Z,19.64
2022-08-17T05:35:27.196Z,19.51
2022-08-17T05:37:54.275Z,19.99
2022-08-17T05:40:25.869Z,20.66
2022-08-17T05:43:03.784Z,21.33
2022-08-17T05:45:55.809Z,21.90
2022-08-17T05:48:18.882Z,22.17
2022-08-17T05:50:49.251Z,22.07
2022-08-17T05:53:43.011Z,21.72
2022-08-17T05:56:29.623Z,21.33
2022-08-17T05:59:23.917Z,21.10
2022-08-17T06:02:06.214Z,20.76
2022-08-17T06:04:36.131Z,20.70
2022-08-17T06:07:09.777Z,21.50
2022-08-17T06:09:40.064Z,21.25
2022-08-17T06:12:14.303Z,21.33
2022-08-17T06:14:52.197Z,21.23
2022-08-17T06:17:22.005Z,21.79
2022-08-17T06:20:08.277Z,21.92
2022-08-17T06:22:38.142Z,21.84
2022-08-17T06:25:10.161Z,22.19
2022-08-17T06:27:49.116Z,22.72
2022-08-17T06:30:28.282Z,23.06
2022-08-17T06:32:59.594Z,22.28
2022-08-17T06:35:48.958Z,22.47
2022-08-17T06:38:38.276Z,22.41
2022-08-17T06:41:16.372Z,23.55
2022-08-17T06:43:52.482Z,23.20
2022-08-17T06:46:23.603Z,22.31
2022-08-17T06:48:56.741Z,23.06
2022-08-17T06:51:30.072Z,23.22
2022-08-17T06:54:02.809Z,23.51
2022-08-17T06:56:52.970Z,23.02
2022-08-17T06:59:25.404Z,23.33
2022-08-17T07:01:53.111Z,23.45
2022-08-17T07:04:23.459Z,24.00
2022-08-17T07:06:57.032Z,24.29
2022-08-17T07:09:37.354Z,23.92
2022-08-17T07:12:19.778Z,24.25
2022-08-17T07:14:52.831Z,24.10
2022-08-17T07:17:21.866Z,24.11
2022-08-17T07:20:10.732Z,24.17
2022-08-17T07:22:57.545Z,23.82
2022-08-17T07:25:27.569Z,24.46
2022-08-17T07:27:57.910Z,25.09
2022-08-17T07:30:30.869Z,24.88
2022-08-17T07:33:13.510Z,25.54
2022-08-17T07:35:44.243Z,25.29
2022-08-17T07:38:25.941Z,25.36
2022-08-17T07:40:57.481Z,25.38
2022-08-17T07:43:35.295Z,25.94
2022-08-17T07:46:24.393Z,25.59
2022-08-17T07:48:54.177Z,26.15
2022-08-17T07:51:25.209Z,25.59
2022-08-17T07:53:53.610Z,25.67
2022-08-17T07:56:39.488Z,26.30
2022-08-17T07:59:23.114Z,26.87
2022-08-17T08:01:58.058Z,27.33
2022-08-17T08:07:18.939Z,27.81
2022-08-17T08:09:59.340Z,27.56
2022-08-17T08:12:37.578Z,27.50
2022-08-17T08:15:12.462Z,27.19
2022-08-17T08:17:47.767Z,27.00
2022-08-17T08:20:52.466Z,26.82
2022-08-17T08:23:15.517Z,25.75
2022-08-17T08:25:42.601Z,26.92
2022-08-17T08:28:15.544Z,27.54
2022-08-17T08:30:47.005Z,27.24
2022-08-17T08:33:25.408Z,27.66
2022-08-17T08:36:58.145Z,27.38
2022-08-17T08:39:15.902Z,27.72
2022-08-17T08:42:03.219Z,28.06
2022-08-17T08:44:59.925Z,28.07
2022-08-17T08:47:50.757Z,28.87
2022-08-17T08:50:37.184Z,28.60
2022-08-17T08:53:18.980Z,27.15
2022-08-17T08:56:02.856Z,27.89
2022-08-17T08:58:41.896Z,28.13
2022-08-17T09:01:17.592Z,28.60
2022-08-17T09:03:54.960Z,28.63
2022-08-17T09:06:38.962Z,28.28
2022-08-17T09:09:25.481Z,29.04
2022-08-17T09:12:02.603Z,28.93
2022-08-17T09:14:46.981Z,28.55
2022-08-17T09:17:21.273Z,29.04
2022-08-17T09:19:51.920Z,29.07
2022-08-17T09:22:42.701Z,29.39
2022-08-17T09:25:15.315Z,28.60
2022-08-17T09:27:48.124Z,28.71
2022-08-17T09:30:15.451Z,28.05
2022-08-17T09:32:55.318Z,28.99
2022-08-17T09:35:25.191Z,29.28
2022-08-17T09:38:17.465Z,29.25
2022-08-17T09:40:44.648Z,28.75
2022-08-17T09:43:30.786Z,28.37
2022-08-17T09:46:01.776Z,29.20
2022-08-17T09:48:58.056Z,29.18
2022-08-17T09:51:31.429Z,29.03
2022-08-17T09:54:14.712Z,29.27
2022-08-17T09:56:50.234Z,29.35
2022-08-17T09:59:38.154Z,29.14
2022-08-17T10:02:31.829Z,28.98
2022-08-17T10:05:28.099Z,29.01
2022-08-17T10:07:55.993Z,29.08
2022-08-17T10:10:29.757Z,29.54
2022-08-17T10:13:05.198Z,29.41
2022-08-17T10:15:48.735Z,29.67
2022-08-17T10:18:32.043Z,29.66
2022-08-17T10:21:27.182Z,28.92
2022-08-17T10:25:01.921Z,29.56
2022-08-17T10:27:48.864Z,29.49
2022-08-17T10:30:17.774Z,29.39
2022-08-17T10:32:50.067Z,29.56
2022-08-17T10:35:33.967Z,29.91
2022-08-17T10:38:10.211Z,29.43
2022-08-17T10:40:37.399Z,29.64
2022-08-17T10:43:18.232Z,29.66
2022-08-17T10:45:45.720Z,29.76
2022-08-17T10:48:14.318Z,30.32
2022-08-17T10:50:44.384Z,30.75
2022-08-17T10:53:31.414Z,30.57
2022-08-17T10:56:13.854Z,30.85
2022-08-17T10:58:54.759Z,30.41
2022-08-17T11:01:45.291Z,30.52
2022-08-17T11:04:18.608Z,30.44
2022-08-17T11:06:52.100Z,30.33
2022-08-17T11:09:24.938Z,30.24
2022-08-17T11:12:07.173Z,30.19
2022-08-17T11:14:51.044Z,29.70
2022-08-17T11:17:45.701Z,29.74
2022-08-17T11:20:27.775Z,29.49
2022-08-17T11:23:14.646Z,29.85
2022-08-17T11:25:43.919Z,29.51
2022-08-17T11:28:18.022Z,29.67
2022-08-17T11:30:50.970Z,30.09
2022-08-17T11:33:29.404Z,30.25
2022-08-17T11:36:04.129Z,30.25
2022-08-17T11:38:43.048Z,30.46
2022-08-17T11:41:39.570Z,30.42
2022-08-17T11:44:18.044Z,30.41
2022-08-17T11:47:22.227Z,30.35
2022-08-17T11:50:07.969Z,30.75
2022-08-17T11:52:35.541Z,30.83
2022-08-17T11:55:31.446Z,30.87
2022-08-17T11:58:01.577Z,31.09
2022-08-17T12:00:47.041Z,31.16
2022-08-17T12:03:24.873Z,30.87
2022-08-17T12:06:00.731Z,30.76
2022-08-17T12:08:32.652Z,29.74
2022-08-17T12:11:11.905Z,30.11
2022-08-17T12:13:46.942Z,30.41
2022-08-17T12:16:15.553Z,30.55
2022-08-17T12:18:48.864Z,30.31
2022-08-17T12:21:22.241Z,30.40
2022-08-17T12:24:13.464Z,29.80
2022-08-17T12:26:43.969Z,30.16
2022-08-17T12:29:18.218Z,30.31
2022-08-17T12:32:04.231Z,30.41
2022-08-17T12:34:36.420Z,30.48
2022-08-17T12:37:08.122Z,30.50
2022-08-17T12:39:35.332Z,29.99
2022-08-17T12:42:04.664Z,30.19
2022-08-17T12:44:33.588Z,30.15
2022-08-17T12:47:10.647Z,30.01
2022-08-17T12:49:39.296Z,29.89
2022-08-17T12:52:06.410Z,29.78
2022-08-17T12:54:38.687Z,29.80
2022-08-17T12:57:08.986Z,29.93
2022-08-17T12:59:39.675Z,29.96
2022-08-17T13:02:10.395Z,30.18
2022-08-17T13:04:39.923Z,30.23
2022-08-17T13:07:07.011Z,29.93
2022-08-17T13:09:40.145Z,29.80
2022-08-17T13:12:07.888Z,29.85
2022-08-17T13:14:35.402Z,29.82
2022-08-17T13:17:08.387Z,29.90
2022-08-17T13:19:48.185Z,29.89
2022-08-17T13:22:15.367Z,29.60
2022-08-17T13:24:52.867Z,29.32
2022-08-17T13:27:20.556Z,29.57
2022-08-17T13:29:53.092Z,29.75
2022-08-17T13:32:23.091Z,29.96
2022-08-17T13:35:07.752Z,29.98
2022-08-17T13:37:48.332Z,29.62
2022-08-17T13:40:15.469Z,29.59
2022-08-17T13:42:50.342Z,29.60
2022-08-17T13:45:35.722Z,29.74
2022-08-17T13:48:08.859Z,29.77
2022-08-17T13:50:45.592Z,29.73
2022-08-17T13:53:21.036Z,29.77
2022-08-17T13:56:33.448Z,29.48
2022-08-17T13:59:00.945Z,29.15
2022-08-17T14:01:33.183Z,29.27
2022-08-17T14:04:02.176Z,29.45
2022-08-17T14:06:51.839Z,29.59
2022-08-17T14:09:20.490Z,29.75
2022-08-17T14:11:48.783Z,29.80
2022-08-17T14:14:15.918Z,29.96
2022-08-17T14:16:43.707Z,29.84
2022-08-17T14:19:12.762Z,29.73
2022-08-17T14:21:42.840Z,29.91
2022-08-17T14:24:16.901Z,29.75
2022-08-17T14:26:44.912Z,29.87
2022-08-17T14:29:15.559Z,29.90
2022-08-17T14:31:42.841Z,29.87
2022-08-17T14:34:20.874Z,29.75
2022-08-17T14:36:48.314Z,29.72
2022-08-17T14:39:17.215Z,29.64
2022-08-17T14:41:44.800Z,29.52
2022-08-17T14:44:13.124Z,29.13
2022-08-17T14:46:41.522Z,28.75
2022-08-17T14:49:11.507Z,28.53
2022-08-17T14:51:43.724Z,28.82
2022-08-17T14:54:32.903Z,29.07
2022-08-17T14:57:14.827Z,29.12
2022-08-17T14:59:53.213Z,29.08
2022-08-17T15:02:30.416Z,29.16
2022-08-17T15:04:58.876Z,28.94
2022-08-17T15:07:26.168Z,28.74
2022-08-17T15:10:00.522Z,28.65
2022-08-17T15:12:32.827Z,28.66
2022-08-17T15:15:02.257Z,28.47
2022-08-17T15:17:43.705Z,28.55
2022-08-17T15:20:15.113Z,28.80
2022-08-17T15:22:43.618Z,28.96
2022-08-17T15:25:12.047Z,28.95
2022-08-17T15:27:40.284Z,28.89
2022-08-17T15:30:08.543Z,28.95
2022-08-17T15:32:38.035Z,28.87
2022-08-17T15:35:06.326Z,28.81
2022-08-17T15:37:33.649Z,28.80
2022-08-17T15:40:01.262Z,28.65
2022-08-17T15:42:29.299Z,28.74
2022-08-17T15:44:56.704Z,28.52
2022-08-17T15:47:24.321Z,28.50
2022-08-17T15:49:55.490Z,28.48
2022-08-17T15:52:26.492Z,28.33
2022-08-17T15:54:55.292Z,28.44
2022-08-17T15:57:24.562Z,28.57
2022-08-17T15:59:55.222Z,28.58
2022-08-17T16:03:44.256Z,28.67
2022-08-17T16:05:22.292Z,28.78
2022-08-17T16:07:51.688Z,28.75
2022-08-17T16:10:19.554Z,28.77
2022-08-17T16:12:48.183Z,28.64
2022-08-17T16:15:15.334Z,28.57
2022-08-17T16:17:42.526Z,28.42
2022-08-17T16:20:10.466Z,28.44
2022-08-17T16:22:48.421Z,28.51
2022-08-17T16:25:18.782Z,28.30
2022-08-17T16:27:46.689Z,28.31
2022-08-17T16:30:17.582Z,28.26
2022-08-17T16:32:45.421Z,28.28
2022-08-17T16:35:16.119Z,28.36
2022-08-17T16:37:45.485Z,28.29
2022-08-17T16:40:14.040Z,28.37
2022-08-17T16:42:42.825Z,28.42
2022-08-17T16:45:14.566Z,28.54
2022-08-17T16:47:44.678Z,28.61
2022-08-17T16:50:13.474Z,28.57
2022-08-17T16:52:40.971Z,28.47
2022-08-17T16:55:09.491Z,28.46
2022-08-17T16:57:47.301Z,28.41
2022-08-17T17:00:19.299Z,28.45
2022-08-17T17:02:47.856Z,28.42
2022-08-17T17:05:43.347Z,28.37
2022-08-17T17:08:13.309Z,28.15
2022-08-17T17:10:43.383Z,28.00
2022-08-17T17:13:17.117Z,27.92
2022-08-17T17:15:51.704Z,27.86
2022-08-17T17:18:20.903Z,27.82
2022-08-17T17:20:53.488Z,27.60
2022-08-17T17:23:46.787Z,27.58
2022-08-17T17:26:21.785Z,27.40
2022-08-17T17:29:21.484Z,27.37
2022-08-17T17:31:56.510Z,27.29
2022-08-17T17:34:25.630Z,27.34
2022-08-17T17:36:56.412Z,27.31
2022-08-17T17:39:31.819Z,27.17
2022-08-17T17:42:02.595Z,27.04
2022-08-17T17:44:32.909Z,26.79
2022-08-17T17:47:01.483Z,26.79
2022-08-17T17:49:33.082Z,26.78
2022-08-17T17:52:24.033Z,26.69
2022-08-17T17:54:51.196Z,26.64
2022-08-17T17:57:26.247Z,26.50
2022-08-17T18:00:12.399Z,26.47
2022-08-17T18:02:51.381Z,26.41
2022-08-17T18:05:34.566Z,26.31
2022-08-17T18:08:32.170Z,26.22
2022-08-17T18:11:24.553Z,26.26
2022-08-17T18:13:54.152Z,26.26
2022-08-17T18:16:22.602Z,26.19
2022-08-17T18:18:52.180Z,26.17
2022-08-17T18:21:35.192Z,26.08
2022-08-17T18:24:03.927Z,25.99
2022-08-17T18:26:45.070Z,25.93
2022-08-17T18:29:21.922Z,25.90
2022-08-17T18:31:52.449Z,25.83
2022-08-17T18:34:45.804Z,25.78
2022-08-17T18:37:11.094Z,25.70
2022-08-17T18:39:43.184Z,25.65
2022-08-17T18:42:24.169Z,25.56
2022-08-17T18:44:54.875Z,25.43
2022-08-17T18:47:24.584Z,25.35
2022-08-17T18:49:59.160Z,25.27
2022-08-17T18:52:28.092Z,25.18
2022-08-17T18:55:12.014Z,25.10
2022-08-17T18:57:43.886Z,25.07
2022-08-17T19:00:18.026Z,24.99
2022-08-17T19:02:56.064Z,24.95
2022-08-17T19:05:28.245Z,24.91
2022-08-17T19:08:13.579Z,24.86
2022-08-17T19:10:46.454Z,24.76
2022-08-17T19:13:23.948Z,24.72
2022-08-17T19:16:14.318Z,24.64
2022-08-17T19:18:46.340Z,24.60
2022-08-17T19:21:32.268Z,24.51
2022-08-17T19:24:09.649Z,24.47
2022-08-17T19:26:54.333Z,24.43
2022-08-17T19:29:38.963Z,24.41
2022-08-17T19:32:09.995Z,24.34
2022-08-17T19:34:38.099Z,24.32
2022-08-17T19:37:08.927Z,24.29
2022-08-17T19:39:40.981Z,24.22
2022-08-17T19:42:33.914Z,24.20
2022-08-17T19:45:13.263Z,24.12
2022-08-17T19:47:55.365Z,24.12
2022-08-17T19:50:39.048Z,24.11
2022-08-17T19:53:54.041Z,24.00
2022-08-17T19:56:29.497Z,23.95
2022-08-17T19:59:36.036Z,23.85
2022-08-17T20:02:15.718Z,23.73
2022-08-17T20:04:45.296Z,23.67
2022-08-17T20:07:15.251Z,23.68
2022-08-17T20:09:54.539Z,23.65
2022-08-17T20:12:24.781Z,23.59
2022-08-17T20:14:55.129Z,23.56
2022-08-17T20:17:31.131Z,23.53
2022-08-17T20:20:01.306Z,23.49
2022-08-17T20:22:52.198Z,23.45
2022-08-17T20:25:30.040Z,23.43
2022-08-17T20:28:05.743Z,23.37
2022-08-17T20:30:38.488Z,23.27
2022-08-17T20:33:08.209Z,23.23
2022-08-17T20:35:59.031Z,23.18
2022-08-17T20:38:40.613Z,23.17
2022-08-17T20:41:10.737Z,23.17
2022-08-17T20:43:37.849Z,23.10
2022-08-17T20:46:10.664Z,23.12
2022-08-17T20:48:41.108Z,23.13
2022-08-17T20:51:15.653Z,23.13
2022-08-17T20:53:53.472Z,23.10
2022-08-17T20:56:39.181Z,23.04
2022-08-17T20:59:06.265Z,23.04
2022-08-17T21:01:40.728Z,23.06
2022-08-17T21:04:27.775Z,23.03
2022-08-17T21:07:13.700Z,22.98
2022-08-17T21:09:40.779Z,23.01
2022-08-17T21:12:09.405Z,23.04
2022-08-17T21:14:58.073Z,23.02
2022-08-17T21:17:34.557Z,23.01
2022-08-17T21:20:14.810Z,23.03
2022-08-17T21:22:45.127Z,23.04
2022-08-17T21:25:41.761Z,23.08
2022-08-17T21:28:20.624Z,23.08
2022-08-17T21:30:54.180Z,23.10
2022-08-17T21:33:25.516Z,23.12
2022-08-17T21:36:23.590Z,23.11
2022-08-17T21:38:53.422Z,23.14
2022-08-17T21:41:27.372Z,23.16
2022-08-17T21:44:01.679Z,23.17
2022-08-17T21:46:36.852Z,23.19
2022-08-17T21:49:13.676Z,23.18
2022-08-17T21:51:44.755Z,23.17
2022-08-17T21:54:17.990Z,23.15
2022-08-17T21:56:47.064Z,23.13
2022-08-17T21:59:19.910Z,23.08
2022-08-17T22:01:52.976Z,23.04
2022-08-17T22:04:24.422Z,22.95
2022-08-17T22:06:57.681Z,22.95
2022-08-17T22:09:27.041Z,22.88
2022-08-17T22:11:55.188Z,22.81
2022-08-17T22:14:52.198Z,22.78
2022-08-17T22:17:24.083Z,22.75
2022-08-17T22:19:51.341Z,22.72
2022-08-17T22:22:26.343Z,22.69
2022-08-17T22:24:57.625Z,22.63
2022-08-17T22:27:43.342Z,22.57
2022-08-17T22:30:17.875Z,22.54
2022-08-17T22:32:46.193Z,22.51
2022-08-17T22:35:16.033Z,22.50
2022-08-17T22:37:43.150Z,22.44
2022-08-17T22:40:10.371Z,22.36
2022-08-17T22:42:47.284Z,22.34
2022-08-17T22:45:15.015Z,22.35
2022-08-17T22:47:48.558Z,22.34
2022-08-17T22:50:26.215Z,22.36
2022-08-17T22:53:19.476Z,22.33
2022-08-17T22:56:14.861Z,22.27
2022-08-17T22:59:14.059Z,22.27
2022-08-17T23:01:42.146Z,22.25
2022-08-17T23:04:29.204Z,22.22
2022-08-17T23:06:56.315Z,22.20
2022-08-17T23:09:23.641Z,22.17
2022-08-17T23:11:53.170Z,22.14
2022-08-17T23:14:20.679Z,22.13
2022-08-17T23:16:50.989Z,22.12
2022-08-17T23:19:19.702Z,22.12
2022-08-17T23:21:47.245Z,22.09
2022-08-17T23:24:21.297Z,22.07
2022-08-17T23:26:48.567Z,22.03
2022-08-17T23:29:15.978Z,22.02
2022-08-17T23:31:44.564Z,21.93
2022-08-17T23:34:12.813Z,22.02
2022-08-17T23:36:40.140Z,22.01
2022-08-17T23:39:07.754Z,22.02
2022-08-17T23:41:35.910Z,22.02
2022-08-17T23:44:04.480Z,21.97
2022-08-17T23:46:31.734Z,21.98
2022-08-17T23:48:59.569Z,21.94
2022-08-17T23:51:28.895Z,21.93
2022-08-17T23:53:58.177Z,21.95
2022-08-17T23:56:25.893Z,22.04
2022-08-17T23:58:54.771Z,22.05
